Time;durP1;ratioP1;P1;durP2;ratioP2;P2;SDS_P1;SDS_P2;PMS_P1;PMS_P2;Temp;Humidity;BMP_temperature;BMP_pressure;BME280_temperature;BME280_humidity;BME280_pressure;Samples;Min_cycle;Max_cycle;Signal;HPM_P1;HPM_P2
2023/02/03 00:00:35;;;;;;;;;2.67;2.00;;;;;12.86;100.00;102916.28;5099123;27;45244;-82
2023/02/03 00:03:00;;;;;;;;;2.67;2.67;;;;;12.87;100.00;102927.81;5100367;27;45212;-82
2023/02/03 00:05:26;;;;;;;;;2.00;2.00;;;;;12.84;100.00;102926.22;5098064;27;45637;-82
2023/02/03 00:07:52;;;;;;;;;3.33;2.67;;;;;12.90;100.00;102932.03;5104581;27;45233;-82
2023/02/03 00:10:20;;;;;;;;;2.00;2.00;;;;;12.89;100.00;102931.16;5099055;27;45353;-83
2023/02/03 00:12:50;;;;;;;;;3.00;3.00;;;;;12.90;100.00;102935.50;5099114;27;45434;-83
2023/02/03 00:15:15;;;;;;;;;2.67;2.67;;;;;12.90;100.00;102930.19;5097651;27;45405;-83
2023/02/03 00:17:41;;;;;;;;;3.00;3.00;;;;;12.95;100.00;102935.97;5098248;27;45223;-82
2023/02/03 00:20:06;;;;;;;;;4.33;3.67;;;;;12.99;100.00;102941.88;5101001;27;46473;-83
2023/02/03 00:22:32;;;;;;;;;4.33;2.67;;;;;13.00;100.00;102938.22;5101256;27;47826;-82
2023/02/03 00:24:57;;;;;;;;;5.00;3.33;;;;;12.93;100.00;102929.09;5102893;27;45332;-83
2023/02/03 00:27:22;;;;;;;;;1.33;1.33;;;;;12.92;100.00;102928.22;5098260;27;45360;-85
2023/02/03 00:29:48;;;;;;;;;5.67;3.67;;;;;12.80;100.00;102924.81;5100192;27;46374;-82
2023/02/03 00:32:13;;;;;;;;;3.00;3.00;;;;;12.80;100.00;102931.97;5103052;27;46409;-83
2023/02/03 00:34:38;;;;;;;;;4.00;4.00;;;;;12.80;100.00;102927.50;5102563;27;45438;-83
2023/02/03 00:37:04;;;;;;;;;3.00;3.00;;;;;12.81;100.00;102920.34;5103755;27;45330;-83
2023/02/03 00:39:29;;;;;;;;;1.00;1.00;;;;;12.72;100.00;102914.00;5100932;27;47001;-83
2023/02/03 00:41:54;;;;;;;;;4.67;4.00;;;;;12.70;100.00;102916.78;5097752;27;47388;-83
2023/02/03 00:44:19;;;;;;;;;3.33;3.33;;;;;12.78;100.00;102918.75;5098519;27;45950;-83
2023/02/03 00:46:45;;;;;;;;;3.00;3.00;;;;;12.73;100.00;102908.53;5102239;27;45683;-82
2023/02/03 00:49:10;;;;;;;;;2.33;2.33;;;;;12.71;100.00;102902.47;5102187;27;45739;-83
2023/02/03 00:51:36;;;;;;;;;2.67;2.67;;;;;12.73;100.00;102900.53;5098068;27;46895;-83
2023/02/03 00:54:01;;;;;;;;;3.00;2.00;;;;;12.69;100.00;102890.25;5085932;27;45405;-83
2023/02/03 00:56:26;;;;;;;;;4.00;4.00;;;;;12.72;100.00;102901.47;5101079;27;45424;-83
2023/02/03 00:58:52;;;;;;;;;4.00;4.00;;;;;12.71;100.00;102891.81;5102090;27;45353;-83
2023/02/03 01:01:17;;;;;;;;;3.00;3.00;;;;;12.64;100.00;102882.66;5100636;27;47352;-84
2023/02/03 01:03:42;;;;;;;;;2.67;2.00;;;;;12.67;100.00;102889.53;5100737;27;45719;-85
2023/02/03 01:06:10;;;;;;;;;3.00;3.00;;;;;12.61;100.00;102883.75;5106285;27;45338;-83
2023/02/03 01:08:36;;;;;;;;;2.00;2.00;;;;;12.55;100.00;102867.44;5104757;27;45513;-83
2023/02/03 01:11:12;;;;;;;;;3.00;2.00;;;;;12.82;100.00;102885.53;5101867;27;46413;-83
2023/02/03 01:13:38;;;;;;;;;3.00;3.00;;;;;12.86;100.00;102892.25;5097273;27;45335;-84
2023/02/03 01:16:07;;;;;;;;;4.00;3.00;;;;;12.71;100.00;102883.78;5092391;27;45358;-84
2023/02/03 01:18:33;;;;;;;;;2.67;2.67;;;;;12.62;100.00;102858.78;5101890;27;45463;-83
2023/02/03 01:21:07;;;;;;;;;2.00;2.00;;;;;12.63;100.00;102856.94;5097195;27;48577;-82
2023/02/03 01:23:34;;;;;;;;;3.67;3.00;;;;;12.61;100.00;102858.91;5088958;27;45344;-83
2023/02/03 01:26:09;;;;;;;;;2.67;2.67;;;;;12.69;100.00;102860.91;5087853;27;45524;-82
2023/02/03 01:28:35;;;;;;;;;0.33;0.33;;;;;12.63;100.00;102848.94;5101473;27;45444;-83
2023/02/03 01:31:24;;;;;;;;;2.33;2.00;;;;;12.67;100.00;102852.19;5099783;27;47018;-82
2023/02/03 01:33:53;;;;;;;;;2.00;2.00;;;;;12.59;100.00;102845.72;5102955;27;45431;-83
2023/02/03 01:36:19;;;;;;;;;1.00;1.00;;;;;12.61;100.00;102853.56;5101502;27;45291;-83
2023/02/03 01:38:45;;;;;;;;;3.33;3.00;;;;;12.58;100.00;102846.69;5100424;27;46430;-82
2023/02/03 01:41:24;;;;;;;;;1.33;1.33;;;;;12.52;100.00;102838.38;5099429;27;47444;-83
2023/02/03 01:43:53;;;;;;;;;2.33;2.33;;;;;12.54;100.00;102834.59;5101839;27;45352;-84
2023/02/03 01:46:43;;;;;;;;;3.00;3.00;;;;;12.52;100.00;102833.03;5088670;27;45246;-83
2023/02/03 01:49:16;;;;;;;;;3.00;3.00;;;;;12.47;100.00;102828.97;5095639;27;47210;-85
2023/02/03 01:51:44;;;;;;;;;2.33;2.00;;;;;12.52;100.00;102825.03;5091534;27;47317;-82
2023/02/03 01:54:13;;;;;;;;;1.00;1.00;;;;;12.57;100.00;102830.84;5096474;27;45452;-83
2023/02/03 01:56:44;;;;;;;;;3.00;2.00;;;;;12.56;100.00;102829.13;5094015;27;45214;-83
2023/02/03 01:59:14;;;;;;;;;2.00;2.00;;;;;12.55;100.00;102827.44;5096483;27;47075;-83
2023/02/03 02:01:39;;;;;;;;;2.00;2.00;;;;;12.55;100.00;102822.97;5093349;27;47505;-83
2023/02/03 02:04:05;;;;;;;;;2.33;2.33;;;;;12.56;100.00;102821.13;5101458;27;45242;-83
2023/02/03 02:06:30;;;;;;;;;1.00;1.00;;;;;12.57;100.00;102828.97;5106046;27;45322;-82
2023/02/03 02:08:59;;;;;;;;;1.00;1.00;;;;;12.55;100.00;102816.78;5101423;27;45295;-83
2023/02/03 02:11:26;;;;;;;;;1.67;1.00;;;;;12.62;100.00;102829.44;5100831;27;45290;-83
2023/02/03 02:13:54;;;;;;;;;3.33;2.33;;;;;12.63;100.00;102822.25;5101100;27;45656;-83
2023/02/03 02:16:22;;;;;;;;;3.00;2.00;;;;;12.64;100.00;102826.63;5097374;27;45410;-83
2023/02/03 02:19:21;;;;;;;;;2.00;2.00;;;;;12.63;100.00;102827.59;5096412;27;46039;-84
2023/02/03 02:22:05;;;;;;;;;0.00;0.00;;;;;12.63;100.00;102835.59;5100197;27;46823;-83
2023/02/03 02:24:43;;;;;;;;;2.00;2.00;;;;;12.62;100.00;102834.78;5100674;27;45274;-82
2023/02/03 02:27:17;;;;;;;;;1.00;0.33;;;;;12.62;100.00;102821.44;5099830;27;45298;-82
2023/02/03 02:29:52;;;;;;;;;0.33;0.33;;;;;12.66;100.00;102827.31;5095494;27;47366;-82
2023/02/03 02:32:29;;;;;;;;;3.00;2.67;;;;;12.71;100.00;102808.22;5091909;27;48161;-85
2023/02/03 02:35:13;;;;;;;;;2.00;1.33;;;;;12.60;100.00;102804.72;5099230;27;46231;-84
2023/02/03 02:37:51;;;;;;;;;1.00;1.00;;;;;12.51;100.00;102797.53;5099117;27;45250;-82
2023/02/03 02:40:32;;;;;;;;;2.00;2.00;;;;;12.53;100.00;102805.38;5095320;27;47153;-83
2023/02/03 02:43:12;;;;;;;;;0.67;0.67;;;;;12.54;100.00;102807.91;5085694;27;46569;-86
2023/02/03 02:45:51;;;;;;;;;2.00;2.00;;;;;12.54;100.00;102804.44;5100034;27;45393;-83
2023/02/03 02:48:49;;;;;;;;;1.00;1.00;;;;;12.58;100.00;102809.34;5099387;27;45570;-83
2023/02/03 02:51:15;;;;;;;;;1.00;1.00;;;;;12.61;100.00;102808.22;5094383;27;45574;-83
2023/02/03 02:54:04;;;;;;;;;1.00;1.00;;;;;12.53;100.00;102808.91;5100437;27;45309;-83
2023/02/03 02:56:33;;;;;;;;;2.67;1.00;;;;;12.61;100.00;102832.25;5100332;27;45255;-83
2023/02/03 02:59:02;;;;;;;;;1.00;1.00;;;;;12.63;100.00;102824.91;5098846;27;45241;-83
2023/02/03 03:01:27;;;;;;;;;2.33;2.00;;;;;12.71;100.00;102845.59;5100220;27;45555;-83
2023/02/03 03:03:52;;;;;;;;;1.00;1.00;;;;;12.72;100.00;102848.13;5098226;27;48191;-85
2023/02/03 03:06:24;;;;;;;;;1.33;1.33;;;;;12.71;100.00;102842.91;5103952;27;45337;-83
2023/02/03 03:09:05;;;;;;;;;2.67;1.00;;;;;12.75;100.00;102855.00;5101021;27;45300;-83
2023/02/03 03:11:41;;;;;;;;;1.00;1.00;;;;;12.78;100.00;102845.91;5099818;27;45386;-83
2023/02/03 03:14:10;;;;;;;;;1.00;1.00;;;;;12.80;100.00;102852.78;5095281;27;48536;-83
2023/02/03 03:16:40;;;;;;;;;1.00;1.00;;;;;12.75;100.00;102847.84;5081973;27;45286;-82
2023/02/03 03:19:20;;;;;;;;;1.33;1.00;;;;;12.73;100.00;102848.97;5095516;27;45306;-83
2023/02/03 03:21:54;;;;;;;;;2.00;2.00;;;;;12.72;100.00;102868.66;5097037;27;45369;-83
2023/02/03 03:24:26;;;;;;;;;2.33;2.33;;;;;12.68;100.00;102864.53;5098430;27;47400;-82
2023/02/03 03:26:57;;;;;;;;;3.00;1.67;;;;;12.77;100.00;102876.22;5098677;27;45329;-83
2023/02/03 03:29:48;;;;;;;;;1.33;1.33;;;;;12.80;100.00;102874.13;5099505;27;45375;-82
2023/02/03 03:32:13;;;;;;;;;1.33;1.33;;;;;12.75;100.00;102873.69;5095264;27;46676;-82
2023/02/03 03:34:40;;;;;;;;;1.00;1.00;;;;;12.78;100.00;102885.94;5097471;27;46582;-83
2023/02/03 03:37:09;;;;;;;;;2.00;1.33;;;;;12.77;100.00;102879.72;5098300;27;45229;-83
2023/02/03 03:39:55;;;;;;;;;1.00;1.00;;;;;12.79;100.00;102887.59;5099341;27;45469;-82
2023/02/03 03:42:39;;;;;;;;;1.00;1.00;;;;;12.78;100.00;102885.94;5099787;27;46183;-83
2023/02/03 03:45:12;;;;;;;;;1.00;1.00;;;;;12.80;100.00;102898.13;5097903;27;47081;-82
2023/02/03 03:47:56;;;;;;;;;1.00;1.00;;;;;12.66;100.00;102899.34;5099613;27;45475;-83
2023/02/03 03:50:26;;;;;;;;;0.67;0.67;;;;;12.70;100.00;102916.78;5099655;27;45278;-83
2023/02/03 03:52:54;;;;;;;;;2.67;2.00;;;;;12.68;100.00;102904.56;5098332;27;46446;-82
2023/02/03 03:55:20;;;;;;;;;1.00;1.00;;;;;12.68;100.00;102910.75;5096071;27;47244;-83
2023/02/03 03:58:11;;;;;;;;;2.00;2.00;;;;;12.68;100.00;102917.88;5101868;27;45368;-82
2023/02/03 04:00:40;;;;;;;;;1.00;1.00;;;;;12.61;100.00;102920.28;5102922;27;45349;-83
2023/02/03 04:03:14;;;;;;;;;0.00;0.00;;;;;12.48;100.00;102912.50;5103072;27;45373;-83
2023/02/03 04:05:40;;;;;;;;;1.67;1.67;;;;;12.43;100.00;102910.22;5098163;27;48447;-83
2023/02/03 04:08:05;;;;;;;;;3.00;1.33;;;;;12.42;100.00;102910.38;5109926;27;45232;-83
2023/02/03 04:10:34;;;;;;;;;0.00;0.00;;;;;12.43;100.00;102907.56;5098353;27;45404;-83
2023/02/03 04:13:00;;;;;;;;;1.33;1.33;;;;;12.39;100.00;102898.13;5095717;27;45501;-83
2023/02/03 04:15:26;;;;;;;;;0.67;0.67;;;;;12.30;100.00;102881.09;5101277;27;48118;-83
2023/02/03 04:17:51;;;;;;;;;2.00;2.00;;;;;12.34;100.00;102889.69;5089698;27;45300;-82
2023/02/03 04:20:17;;;;;;;;;1.00;1.00;;;;;12.22;100.00;102876.44;5102817;27;45388;-83
2023/02/03 04:22:42;;;;;;;;;0.33;0.33;;;;;12.18;100.00;102879.53;5101408;27;46254;-83
2023/02/03 04:25:08;;;;;;;;;2.00;2.00;;;;;12.10;100.00;102873.00;5102564;27;45403;-86
2023/02/03 04:27:34;;;;;;;;;1.00;1.00;;;;;12.08;100.00;102855.47;5101613;27;45402;-82
2023/02/03 04:29:59;;;;;;;;;1.00;1.00;;;;;12.07;100.00;102857.31;5100928;27;45195;-82
2023/02/03 04:32:25;;;;;;;;;1.00;1.00;;;;;12.07;100.00;102862.63;5102509;27;45198;-82
2023/02/03 04:34:50;;;;;;;;;1.00;1.00;;;;;12.05;100.00;102853.88;5102637;27;45350;-82
2023/02/03 04:37:16;;;;;;;;;0.00;0.00;;;;;12.10;100.00;102861.50;5102580;27;45239;-82
2023/02/03 04:39:41;;;;;;;;;0.67;0.33;;;;;12.09;100.00;102851.84;5102821;27;45257;-83
2023/02/03 04:42:06;;;;;;;;;2.00;1.00;;;;;12.09;100.00;102839.34;5101301;27;46996;-82
2023/02/03 04:44:32;;;;;;;;;4.00;1.00;;;;;12.03;100.00;102839.00;5101582;27;46319;-82
2023/02/03 04:46:57;;;;;;;;;1.00;1.00;;;;;12.18;100.00;102859.00;5102722;27;45306;-82
2023/02/03 04:49:22;;;;;;;;;1.33;1.00;;;;;12.18;100.00;102872.34;5102050;27;45436;-82
2023/02/03 04:51:48;;;;;;;;;1.33;0.33;;;;;12.39;100.00;102870.63;5102203;27;45368;-82
2023/02/03 04:54:14;;;;;;;;;1.00;1.00;;;;;12.30;100.00;102873.09;5100622;27;47357;-82
2023/02/03 04:56:40;;;;;;;;;1.00;1.00;;;;;12.30;100.00;102862.44;5102307;27;45343;-83
2023/02/03 04:59:05;;;;;;;;;1.67;1.67;;;;;12.32;100.00;102870.31;5102139;27;45446;-82
2023/02/03 05:01:31;;;;;;;;;1.00;1.00;;;;;12.30;100.00;102872.28;5096491;27;45845;-82
2023/02/03 05:03:56;;;;;;;;;0.00;0.00;;;;;12.31;100.00;102879.28;5100129;27;47051;-82
2023/02/03 05:06:27;;;;;;;;;1.00;1.00;;;;;12.31;100.00;102876.63;5107908;27;45376;-82
2023/02/03 05:08:53;;;;;;;;;2.00;2.00;;;;;12.32;100.00;102881.81;5094631;27;45709;-83
2023/02/03 05:11:19;;;;;;;;;0.00;0.00;;;;;12.28;100.00;102882.22;5093980;27;45280;-82
2023/02/03 05:13:44;;;;;;;;;0.00;0.00;;;;;12.22;100.00;102886.28;5101879;27;45392;-83
2023/02/03 05:16:09;;;;;;;;;0.33;0.33;;;;;12.16;100.00;102889.47;5097266;27;45441;-82
2023/02/03 05:18:35;;;;;;;;;2.00;0.33;;;;;12.14;100.00;102888.72;5087509;27;45435;-85
2023/02/03 05:21:00;;;;;;;;;0.67;0.67;;;;;12.15;100.00;102896.59;5097471;27;46136;-83
2023/02/03 05:23:25;;;;;;;;;2.00;2.00;;;;;12.08;100.00;102879.44;5099456;27;46938;-84
2023/02/03 05:25:51;;;;;;;;;0.67;0.67;;;;;12.10;100.00;102890.84;5101806;27;45347;-82
2023/02/03 05:28:16;;;;;;;;;3.00;3.00;;;;;12.11;100.00;102892.50;5100597;27;45425;-82
2023/02/03 05:30:42;;;;;;;;;3.00;2.00;;;;;12.08;100.00;102893.63;5101471;27;45409;-82
2023/02/03 05:33:07;;;;;;;;;2.67;2.00;;;;;12.08;100.00;102888.31;5096800;27;47228;-82
2023/02/03 05:35:33;;;;;;;;;3.00;3.00;;;;;12.05;100.00;102887.66;5094154;27;45219;-82
2023/02/03 05:37:58;;;;;;;;;3.33;3.00;;;;;12.04;100.00;102888.66;5096814;27;45568;-82
2023/02/03 05:43:08;;;;;;;;;3.00;3.00;;;;;12.12;100.00;102902.19;5101243;27;45220;-83
2023/02/03 05:45:33;;;;;;;;;3.00;3.00;;;;;11.97;100.00;102898.97;5099864;27;45817;-83
2023/02/03 05:48:01;;;;;;;;;4.00;4.00;;;;;11.94;100.00;102910.75;5101816;27;45830;-83
2023/02/03 05:50:31;;;;;;;;;1.00;1.00;;;;;11.90;100.00;102903.16;5101112;27;45232;-86
2023/02/03 05:52:57;;;;;;;;;2.00;2.00;;;;;11.87;100.00;102913.09;5101470;27;45486;-83
2023/02/03 05:55:23;;;;;;;;;4.00;2.00;;;;;11.75;100.00;102919.47;5082729;27;45402;-82
2023/02/03 05:57:48;;;;;;;;;1.33;1.33;;;;;11.65;100.00;102911.41;5100286;27;45294;-82
2023/02/03 06:00:14;;;;;;;;;2.00;2.00;;;;;11.54;100.00;102896.31;5099501;27;45836;-83
2023/02/03 06:02:39;;;;;;;;;3.00;3.00;;;;;11.56;100.00;102904.16;5101220;27;46548;-83
2023/02/03 06:05:05;;;;;;;;;3.67;2.67;;;;;11.60;100.00;102913.59;5101115;27;45427;-82
2023/02/03 06:07:30;;;;;;;;;2.00;2.00;;;;;11.55;100.00;102897.16;5107680;27;45297;-83
2023/02/03 06:09:55;;;;;;;;;4.00;3.00;;;;;11.61;100.00;102910.81;5101015;27;45400;-82
2023/02/03 06:12:21;;;;;;;;;2.33;2.33;;;;;11.61;100.00;102901.94;5099585;27;47039;-83
2023/02/03 06:14:46;;;;;;;;;1.67;1.67;;;;;11.62;100.00;102909.81;5098141;27;45430;-82
2023/02/03 06:17:11;;;;;;;;;2.33;2.00;;;;;11.55;100.00;102891.84;5101204;27;45344;-83
2023/02/03 06:19:37;;;;;;;;;2.33;2.33;;;;;11.58;100.00;102889.75;5100946;27;45274;-82
2023/02/03 06:22:02;;;;;;;;;2.00;2.00;;;;;11.60;100.00;102894.94;5099087;27;46886;-82
2023/02/03 06:24:27;;;;;;;;;5.33;3.33;;;;;11.63;100.00;102892.03;5100702;27;45388;-83
2023/02/03 06:26:53;;;;;;;;;4.00;4.00;;;;;11.59;100.00;102893.25;5100877;27;45499;-82
2023/02/03 06:29:18;;;;;;;;;3.00;2.33;;;;;11.58;100.00;102905.72;5100719;27;45391;-82
2023/02/03 06:31:43;;;;;;;;;3.67;3.67;;;;;11.53;100.00;102893.78;5100453;27;46384;-83
2023/02/03 06:34:09;;;;;;;;;4.00;4.00;;;;;11.49;100.00;102888.69;5095049;27;45547;-84
2023/02/03 06:36:34;;;;;;;;;3.00;3.00;;;;;11.52;100.00;102895.56;5098905;27;45451;-82
2023/02/03 06:38:59;;;;;;;;;3.00;3.00;;;;;11.48;100.00;102889.69;5100478;27;45565;-81
2023/02/03 06:41:29;;;;;;;;;4.33;4.33;;;;;11.43;100.00;102891.88;5095890;27;47264;-81
2023/02/03 06:43:54;;;;;;;;;7.00;5.67;;;;;11.43;100.00;102896.38;5094530;27;45231;-80
2023/02/03 06:46:20;;;;;;;;;6.33;3.33;;;;;11.41;100.00;102887.66;5099195;27;45302;-80
2023/02/03 06:48:45;;;;;;;;;3.00;3.00;;;;;11.48;100.00;102899.47;5100381;27;45460;-81
2023/02/03 06:51:10;;;;;;;;;6.33;4.67;;;;;11.51;100.00;102909.88;5095647;27;47562;-82
2023/02/03 06:53:36;;;;;;;;;6.00;3.67;;;;;11.68;100.00;102896.97;5093899;27;45251;-83
2023/02/03 06:56:02;;;;;;;;;3.00;3.00;;;;;11.57;100.00;102903.19;5100794;27;45302;-83
2023/02/03 06:58:28;;;;;;;;;4.67;4.67;;;;;11.62;100.00;102906.31;5098765;27;46489;-81
2023/02/03 07:00:56;;;;;;;;;4.00;4.00;;;;;11.53;100.00;102907.09;5100142;27;46292;-82
2023/02/03 07:03:22;;;;;;;;;7.00;4.33;;;;;11.49;100.00;102904.69;5100376;27;45372;-81
2023/02/03 07:05:47;;;;;;;;;3.00;3.00;;;;;11.48;100.00;102904.81;5101374;27;45333;-84
2023/02/03 07:08:13;;;;;;;;;4.00;4.00;;;;;11.44;100.00;102898.88;5105906;27;45523;-84
2023/02/03 07:10:38;;;;;;;;;5.00;3.00;;;;;11.49;100.00;102914.47;5098793;27;47832;-83
2023/02/03 07:13:05;;;;;;;;;6.00;6.00;;;;;11.45;100.00;102905.06;5100019;27;45307;-77
2023/02/03 07:15:30;;;;;;;;;4.33;4.33;;;;;11.48;100.00;102912.78;5098700;27;45349;-77
2023/02/03 07:17:55;;;;;;;;;2.67;2.67;;;;;11.42;100.00;102913.28;5099770;27;45440;-78
2023/02/03 07:20:22;;;;;;;;;3.33;3.33;;;;;11.44;100.00;102919.34;5098334;27;47910;-79
2023/02/03 07:22:56;;;;;;;;;4.67;4.67;;;;;11.43;100.00;102926.47;5099666;27;45375;-80
2023/02/03 07:25:22;;;;;;;;;5.00;4.00;;;;;11.40;100.00;102926.72;5099539;27;45437;-79
2023/02/03 07:27:48;;;;;;;;;5.67;5.33;;;;;11.38;100.00;102925.16;5099491;27;45455;-77
2023/02/03 07:30:14;;;;;;;;;5.00;5.00;;;;;11.39;100.00;102927.72;5094738;27;48004;-77
2023/02/03 07:32:39;;;;;;;;;5.67;4.67;;;;;11.34;100.00;102937.88;5094268;27;45403;-77
2023/02/03 07:35:05;;;;;;;;;5.00;5.00;;;;;11.33;100.00;102930.88;5098609;27;45283;-78
2023/02/03 07:37:30;;;;;;;;;5.33;5.33;;;;;11.30;100.00;102928.47;5099391;27;45429;-77
2023/02/03 07:39:55;;;;;;;;;6.67;6.00;;;;;11.31;100.00;102940.81;5094276;27;46373;-77
2023/02/03 07:42:21;;;;;;;;;5.00;5.00;;;;;11.28;100.00;102941.88;5092144;27;45368;-77
2023/02/03 07:44:46;;;;;;;;;9.00;8.00;;;;;11.26;100.00;102937.66;5099487;27;45782;-77
2023/02/03 07:47:11;;;;;;;;;6.33;4.00;;;;;11.26;100.00;102932.34;5095036;27;46680;-77
2023/02/03 07:49:37;;;;;;;;;5.67;5.67;;;;;11.11;100.00;102906.00;5098607;27;47005;-77
2023/02/03 07:52:02;;;;;;;;;7.00;7.00;;;;;11.27;100.00;102934.88;5098282;27;45495;-77
2023/02/03 07:54:28;;;;;;;;;5.67;5.00;;;;;11.23;100.00;102930.78;5090973;27;45321;-77
2023/02/03 07:56:54;;;;;;;;;6.00;6.00;;;;;11.21;100.00;102928.25;5097366;27;46040;-77
2023/02/03 07:59:19;;;;;;;;;7.00;7.00;;;;;11.28;100.00;102952.53;5098846;27;45277;-77
2023/02/03 08:01:45;;;;;;;;;4.33;4.33;;;;;12.24;100.00;102949.13;5099485;27;45355;-76
2023/02/03 08:04:15;;;;;;;;;7.00;5.00;;;;;12.27;100.00;102940.03;5099570;27;45261;-76
2023/02/03 08:06:40;;;;;;;;;7.00;7.00;;;;;11.57;100.00;102949.31;5107525;27;45795;-77
2023/02/03 08:09:06;;;;;;;;;8.33;7.00;;;;;11.41;100.00;102955.06;5097656;27;47307;-78
2023/02/03 08:11:31;;;;;;;;;6.67;6.67;;;;;11.91;100.00;102958.97;5099263;27;45392;-77
2023/02/03 08:13:56;;;;;;;;;7.00;7.00;;;;;11.55;100.00;102964.56;5099385;27;45917;-80
2023/02/03 08:16:22;;;;;;;;;5.33;5.33;;;;;11.45;100.00;102963.63;5099122;27;45303;-75
2023/02/03 08:18:47;;;;;;;;;7.00;7.00;;;;;11.45;100.00;102969.81;5098005;27;46081;-82
2023/02/03 08:21:12;;;;;;;;;7.67;5.67;;;;;11.42;100.00;102970.06;5086571;27;45318;-75
2023/02/03 08:23:38;;;;;;;;;4.00;4.00;;;;;11.44;100.00;102965.44;5099383;27;45373;-77
2023/02/03 08:26:03;;;;;;;;;8.33;7.00;;;;;11.44;100.00;102972.59;5099161;27;45617;-76
2023/02/03 08:28:29;;;;;;;;;9.00;8.00;;;;;11.43;100.00;102971.75;5098893;27;46112;-75
2023/02/03 08:30:55;;;;;;;;;6.67;6.67;;;;;11.47;100.00;102970.53;5098660;27;45507;-75
2023/02/03 08:33:20;;;;;;;;;5.00;5.00;;;;;11.53;100.00;102976.31;5099156;27;45242;-75
2023/02/03 08:35:48;;;;;;;;;8.67;8.00;;;;;11.52;100.00;102983.47;5094263;27;46934;-76
2023/02/03 08:38:13;;;;;;;;;11.00;10.33;;;;;11.55;100.00;102979.72;5095099;27;46286;-75
2023/02/03 08:40:39;;;;;;;;;8.33;8.33;;;;;11.56;100.00;102989.41;5102228;27;45419;-76
2023/02/03 08:43:04;;;;;;;;;16.00;13.67;;;;;11.52;100.00;102996.78;5102473;27;45274;-76
2023/02/03 08:45:30;;;;;;;;;10.00;8.67;;;;;11.48;100.00;103001.53;5102275;27;45533;-76
2023/02/03 08:47:56;;;;;;;;;8.33;8.00;;;;;11.53;100.00;103002.97;5102546;27;46025;-76
2023/02/03 08:50:21;;;;;;;;;10.67;8.33;;;;;11.58;100.00;103000.75;5100702;27;46272;-75
2023/02/03 08:52:46;;;;;;;;;9.33;9.33;;;;;11.57;100.00;102999.06;5102483;27;45655;-76
2023/02/03 08:55:12;;;;;;;;;8.67;8.67;;;;;11.58;100.00;102988.28;5102094;27;45391;-79
2023/02/03 08:57:38;;;;;;;;;8.67;8.00;;;;;11.59;100.00;102975.81;5103365;27;46337;-77
2023/02/03 09:00:05;;;;;;;;;4.67;4.67;;;;;11.65;100.00;102985.97;5093762;27;45470;-78
2023/02/03 09:02:30;;;;;;;;;6.33;6.33;;;;;11.65;100.00;102963.81;5092261;27;46164;-79
2023/02/03 09:04:55;;;;;;;;;7.00;6.00;;;;;11.69;100.00;102967.91;5094495;27;45702;-79
2023/02/03 09:07:21;;;;;;;;;9.00;8.00;;;;;11.78;100.00;102974.28;5099395;27;47273;-79
2023/02/03 09:09:46;;;;;;;;;9.33;9.33;;;;;11.80;100.00;102967.88;5097927;27;45293;-81
2023/02/03 09:12:12;;;;;;;;;9.67;8.67;;;;;11.87;100.00;102970.88;5096630;27;45318;-80
2023/02/03 09:14:37;;;;;;;;;9.00;9.00;;;;;11.91;100.00;102976.81;5101267;27;45871;-79
2023/02/03 09:17:04;;;;;;;;;8.33;8.33;;;;;11.96;100.00;102982.56;5101743;27;46262;-82
2023/02/03 09:19:29;;;;;;;;;7.33;7.33;;;;;11.95;100.00;102978.22;5096934;27;45752;-79
2023/02/03 09:21:56;;;;;;;;;10.00;8.00;;;;;11.95;100.00;102987.06;5100939;27;45368;-80
2023/02/03 09:24:22;;;;;;;;;14.00;10.00;;;;;11.95;100.00;102999.53;5101657;27;45306;-78
2023/02/03 09:26:48;;;;;;;;;11.33;11.33;;;;;11.91;100.00;102998.94;5100925;27;45649;-79
2023/02/03 09:29:13;;;;;;;;;11.00;9.00;;;;;11.91;100.00;102990.94;5101170;27;45299;-79
2023/02/03 09:31:39;;;;;;;;;9.67;8.67;;;;;11.92;100.00;103008.66;5101045;27;45278;-80
2023/02/03 09:34:04;;;;;;;;;8.33;8.00;;;;;11.98;100.00;103009.94;5100247;27;46115;-79
2023/02/03 09:36:29;;;;;;;;;8.33;7.67;;;;;11.97;100.00;103014.44;5101047;27;45386;-79
2023/02/03 09:38:56;;;;;;;;;11.00;9.67;;;;;12.00;100.00;103019.50;5101636;27;45439;-78
2023/02/03 09:41:57;;;;;;;;;10.33;9.33;;;;;12.06;100.00;103019.97;5101572;27;45282;-77
2023/02/03 09:44:34;;;;;;;;;11.00;11.00;;;;;12.12;100.00;103024.81;5095742;27;46051;-78
2023/02/03 09:47:04;;;;;;;;;11.00;11.00;;;;;12.15;100.00;103027.22;5090763;27;47478;-77
2023/02/03 09:49:41;;;;;;;;;14.00;13.00;;;;;12.25;100.00;103030.81;5088782;27;45384;-77
2023/02/03 09:52:27;;;;;;;;;11.00;9.00;;;;;12.35;100.00;103033.56;5092444;27;45561;-76
2023/02/03 09:54:56;;;;;;;;;12.00;10.33;;;;;12.42;100.00;103025.88;5093619;27;45259;-77
2023/02/03 09:57:24;;;;;;;;;11.00;11.00;;;;;12.48;100.00;103025.34;5096465;27;48011;-76
2023/02/03 09:59:53;;;;;;;;;12.67;11.00;;;;;12.60;100.00;103025.28;5095574;27;45359;-77
2023/02/03 10:02:21;;;;;;;;;10.00;10.00;;;;;12.71;100.00;103022.53;5099794;27;45306;-78
2023/02/03 10:05:00;;;;;;;;;11.33;10.33;;;;;12.78;100.00;103008.66;5079966;27;45173;-77
2023/02/03 10:08:04;;;;;;;;;9.33;7.33;;;;;12.82;100.00;103016.28;5090339;27;48718;-80
2023/02/03 10:10:33;;;;;;;;;7.00;7.00;;;;;12.86;100.00;103025.69;5071308;27;45462;-80
2023/02/03 10:13:33;;;;;;;;;10.67;9.67;;;;;12.92;100.00;103024.31;5081371;27;45306;-78
2023/02/03 10:16:10;;;;;;;;;8.00;6.67;;;;;13.02;100.00;103023.50;5091406;27;46234;-80
2023/02/03 10:18:43;;;;;;;;;11.00;11.00;;;;;13.09;100.00;103022.84;5100234;27;45405;-81
2023/02/03 10:21:40;;;;;;;;;10.67;10.00;;;;;13.16;100.00;103028.47;5098767;27;45347;-83
2023/02/03 10:24:14;;;;;;;;;11.67;10.00;;;;;13.12;100.00;103021.72;5093739;27;45400;-82
2023/02/03 10:26:41;;;;;;;;;11.00;10.33;;;;;13.19;100.00;103033.56;5090892;27;46572;-80
2023/02/03 10:29:25;;;;;;;;;10.00;9.00;;;;;13.23;100.00;103032.28;5084315;27;45770;-80
2023/02/03 10:31:54;;;;;;;;;5.33;5.33;;;;;13.18;100.00;103031.00;5094881;27;45871;-81
2023/02/03 10:34:21;;;;;;;;;6.67;6.67;;;;;13.21;100.00;103036.94;5083508;27;45255;-84
2023/02/03 10:37:24;;;;;;;;;5.33;5.33;;;;;13.18;100.00;103034.53;5079597;27;45576;-80
2023/02/03 10:39:53;;;;;;;;;5.00;5.00;;;;;13.21;100.00;103042.28;5093122;27;48253;-78
2023/02/03 10:42:21;;;;;;;;;7.00;6.00;;;;;13.25;100.00;103038.34;5097096;27;45522;-80
2023/02/03 10:44:57;;;;;;;;;5.67;5.67;;;;;13.31;100.00;103039.63;5079394;27;45844;-81
2023/02/03 10:47:24;;;;;;;;;6.00;5.33;;;;;13.34;100.00;103044.69;5080719;27;45319;-80
2023/02/03 10:49:52;;;;;;;;;5.00;5.00;;;;;13.46;100.00;103042.75;5079227;27;45882;-81
2023/02/03 10:52:30;;;;;;;;;5.00;4.00;;;;;13.50;100.00;103033.50;5095528;27;46281;-82
2023/02/03 10:54:58;;;;;;;;;7.00;6.00;;;;;13.54;100.00;103036.78;5096002;27;45362;-83
2023/02/03 10:57:26;;;;;;;;;5.00;5.00;;;;;13.53;100.00;103027.03;5085196;27;45585;-81
2023/02/03 11:00:20;;;;;;;;;5.67;5.33;;;;;13.61;100.00;103029.03;5095866;27;46283;-81
2023/02/03 11:02:55;;;;;;;;;7.00;5.00;;;;;13.66;100.00;103031.28;5083047;27;45325;-79
2023/02/03 11:05:23;;;;;;;;;5.00;5.00;;;;;13.71;100.00;103027.22;5095654;27;45313;-81
2023/02/03 11:07:49;;;;;;;;;5.00;5.00;;;;;13.73;100.00;103030.59;5108108;27;45543;-80
2023/02/03 11:10:36;;;;;;;;;4.00;4.00;;;;;13.73;100.00;103035.94;5099781;27;46354;-78
2023/02/03 11:13:25;;;;;;;;;5.00;5.00;;;;;13.68;100.00;103008.78;5098708;27;45432;-79
2023/02/03 11:16:05;;;;;;;;;6.00;5.00;;;;;13.83;100.00;103024.44;5095143;27;45384;-79
2023/02/03 11:18:37;;;;;;;;;8.00;8.00;;;;;13.75;100.00;103017.97;5095341;27;46912;-78
2023/02/03 11:21:36;;;;;;;;;6.33;5.00;;;;;13.75;100.00;103017.09;5099852;27;46178;-78
2023/02/03 11:24:18;;;;;;;;;8.00;7.33;;;;;13.78;100.00;103027.53;5083425;27;45369;-79
2023/02/03 11:26:55;;;;;;;;;8.00;6.33;;;;;13.89;100.00;103014.00;5099960;27;45466;-77
2023/02/03 11:29:30;;;;;;;;;6.33;6.00;;;;;13.97;100.00;103004.44;5099528;27;45376;-78